createdAt,value
2023-04-07T00:02:29.230Z,4.47
2023-04-07T00:04:58.566Z,4.83
2023-04-07T00:07:26.438Z,4.00
2023-04-07T00:09:54.278Z,3.87
2023-04-07T00:12:22.100Z,3.30
2023-04-07T00:14:50.455Z,3.43
2023-04-07T00:17:18.329Z,3.10
2023-04-07T00:19:47.829Z,3.47
2023-04-07T00:22:15.911Z,3.70
2023-04-07T00:24:43.977Z,3.93
2023-04-07T00:27:12.116Z,3.60
2023-04-07T00:29:39.938Z,3.57
2023-04-07T00:32:07.847Z,4.20
2023-04-07T00:34:35.752Z,4.23
2023-04-07T00:37:06.557Z,4.40
2023-04-07T00:39:34.576Z,4.30
2023-04-07T00:42:04.244Z,4.47
2023-04-07T00:44:33.486Z,5.63
2023-04-07T00:47:01.584Z,5.37
2023-04-07T00:49:29.961Z,6.17
2023-04-07T00:51:59.196Z,6.73
2023-04-07T00:54:28.404Z,6.83
2023-04-07T00:56:57.411Z,6.43
2023-04-07T00:59:26.217Z,6.17
2023-04-07T01:02:00.399Z,6.27
2023-04-07T01:04:33.725Z,6.23
2023-04-07T01:07:06.909Z,5.63
2023-04-07T01:09:41.917Z,5.87
2023-04-07T01:12:18.541Z,5.67
2023-04-07T01:14:52.518Z,5.73
2023-04-07T01:17:22.239Z,5.83
2023-04-07T01:19:57.165Z,5.73
2023-04-07T01:22:29.674Z,5.60
2023-04-07T01:25:54.985Z,5.03
2023-04-07T01:28:45.852Z,5.40
2023-04-07T01:31:16.672Z,4.90
2023-04-07T01:33:46.446Z,5.80
2023-04-07T01:36:15.555Z,5.30
2023-04-07T01:38:45.509Z,5.40
2023-04-07T01:41:16.066Z,5.50
2023-04-07T01:43:46.296Z,6.17
2023-04-07T01:46:16.585Z,5.87
2023-04-07T01:48:45.182Z,6.33
2023-04-07T01:51:17.533Z,6.00
2023-04-07T01:53:47.314Z,6.67
2023-04-07T01:56:16.680Z,6.67
2023-04-07T01:58:44.495Z,6.77
2023-04-07T02:01:12.878Z,7.83
2023-04-07T02:03:50.731Z,7.63
2023-04-07T02:06:23.623Z,6.83
2023-04-07T02:08:56.310Z,7.37
2023-04-07T02:11:27.245Z,6.70
2023-04-07T02:13:56.567Z,7.30
2023-04-07T02:16:25.405Z,7.53
2023-04-07T02:18:55.131Z,6.70
2023-04-07T02:21:23.659Z,7.07
2023-04-07T02:23:52.358Z,6.93
2023-04-07T02:26:20.167Z,7.50
2023-04-07T02:28:48.013Z,7.47
2023-04-07T02:31:16.152Z,6.80
2023-04-07T02:33:44.038Z,6.83
2023-04-07T02:36:13.827Z,7.67
2023-04-07T02:38:41.567Z,7.33
2023-04-07T02:41:09.491Z,7.40
2023-04-07T02:43:37.361Z,7.43
2023-04-07T02:46:06.740Z,7.20
2023-04-07T02:48:34.659Z,7.73
2023-04-07T02:51:02.501Z,7.10
2023-04-07T02:53:31.722Z,6.87
2023-04-07T02:56:00.196Z,6.83
2023-04-07T02:58:28.020Z,7.27
2023-04-07T03:00:55.946Z,6.53
2023-04-07T03:03:24.055Z,6.63
2023-04-07T03:05:52.076Z,7.27
2023-04-07T03:08:19.925Z,6.90
2023-04-07T03:10:49.539Z,6.37
2023-04-07T03:13:19.199Z,6.17
2023-04-07T03:15:47.663Z,6.43
2023-04-07T03:18:15.769Z,6.70
2023-04-07T03:20:44.522Z,6.13
2023-04-07T03:23:13.052Z,5.70
2023-04-07T03:25:41.871Z,5.57
2023-04-07T03:28:11.109Z,6.03
2023-04-07T03:30:39.055Z,5.93
2023-04-07T03:33:06.997Z,6.10
2023-04-07T03:35:34.910Z,5.30
2023-04-07T03:38:02.739Z,4.90
2023-04-07T03:40:30.645Z,4.90
2023-04-07T03:42:58.568Z,5.47
2023-04-07T03:45:27.771Z,5.57
2023-04-07T03:47:56.193Z,5.40
2023-04-07T03:50:24.118Z,5.87
2023-04-07T03:52:52.115Z,4.93
2023-04-07T03:55:19.950Z,5.80
2023-04-07T03:57:47.958Z,5.67
2023-04-07T04:00:16.094Z,5.47
2023-04-07T04:02:45.686Z,5.67
2023-04-07T04:05:13.884Z,5.63
2023-04-07T04:07:41.750Z,5.40
2023-04-07T04:10:10.650Z,5.30
2023-04-07T04:12:38.450Z,5.47
2023-04-07T04:15:07.027Z,5.40
2023-04-07T04:17:34.784Z,5.37
2023-04-07T04:20:04.130Z,5.27
2023-04-07T04:22:32.101Z,5.77
2023-04-07T04:25:00.568Z,5.90
2023-04-07T04:27:28.838Z,6.10
2023-04-07T04:29:56.698Z,6.10
2023-04-07T04:32:24.720Z,6.00
2023-04-07T04:34:52.579Z,6.30
2023-04-07T04:37:22.045Z,6.20
2023-04-07T04:39:51.148Z,6.10
2023-04-07T04:42:19.204Z,6.80
2023-04-07T04:44:47.333Z,6.10
2023-04-07T04:47:16.016Z,6.00
2023-04-07T04:49:44.223Z,6.87
2023-04-07T04:52:12.074Z,6.03
2023-04-07T04:54:41.234Z,6.47
2023-04-07T04:57:09.425Z,6.50
2023-04-07T04:59:37.214Z,7.20
2023-04-07T05:02:05.310Z,6.20
2023-04-07T05:04:33.594Z,6.70
2023-04-07T05:07:01.571Z,6.50
2023-04-07T05:09:29.644Z,5.70
2023-04-07T05:11:58.973Z,5.50
2023-04-07T05:14:26.912Z,5.30
2023-04-07T05:16:55.154Z,4.93
2023-04-07T05:19:23.143Z,4.37
2023-04-07T05:21:51.399Z,4.70
2023-04-07T05:24:19.213Z,4.43
2023-04-07T05:26:47.951Z,4.27
2023-04-07T05:29:17.334Z,4.00
2023-04-07T05:31:45.412Z,4.10
2023-04-07T05:34:13.284Z,4.57
2023-04-07T05:36:41.542Z,4.80
2023-04-07T05:39:09.625Z,4.43
2023-04-07T05:41:37.535Z,4.93
2023-04-07T05:44:06.424Z,4.70
2023-04-07T05:46:35.647Z,4.53
2023-04-07T05:49:18.420Z,5.03
2023-04-07T05:51:49.007Z,3.97
2023-04-07T05:54:17.417Z,4.37
2023-04-07T05:56:45.485Z,4.23
2023-04-07T05:59:13.372Z,5.13
2023-04-07T06:01:43.741Z,4.23
2023-04-07T06:04:11.790Z,4.80
2023-04-07T06:06:39.662Z,4.20
2023-04-07T06:09:08.263Z,4.60
2023-04-07T06:11:36.812Z,4.00
2023-04-07T06:14:04.867Z,4.70
2023-04-07T06:16:32.724Z,4.70
2023-04-07T06:19:02.453Z,4.27
2023-04-07T06:21:30.637Z,3.90
2023-04-07T06:23:58.656Z,4.67
2023-04-07T06:26:27.130Z,4.43
2023-04-07T06:28:55.315Z,4.00
2023-04-07T06:31:23.354Z,4.40
2023-04-07T06:33:51.577Z,4.20
2023-04-07T06:36:21.685Z,4.77
2023-04-07T06:38:49.932Z,4.07
2023-04-07T06:41:17.869Z,4.73
2023-04-07T06:43:46.295Z,4.20
2023-04-07T06:46:14.829Z,4.77
2023-04-07T06:48:43.121Z,4.60
2023-04-07T06:51:11.114Z,5.80
2023-04-07T06:53:41.486Z,5.67
2023-04-07T06:56:11.878Z,5.57
2023-04-07T06:58:40.506Z,4.90
2023-04-07T07:01:08.735Z,5.33
2023-04-07T07:03:36.694Z,5.03
2023-04-07T07:06:05.500Z,6.33
2023-04-07T07:08:33.320Z,5.37
2023-04-07T07:11:02.584Z,4.70
2023-04-07T07:13:30.486Z,5.37
2023-04-07T07:15:58.537Z,5.07
2023-04-07T07:18:26.564Z,5.67
2023-04-07T07:20:54.475Z,4.80
2023-04-07T07:23:22.281Z,10.93
2023-04-07T07:25:50.653Z,6.17
2023-04-07T07:28:21.491Z,5.87
2023-04-07T07:30:50.086Z,5.03
2023-04-07T07:33:18.032Z,5.07
2023-04-07T07:35:46.031Z,4.70
2023-04-07T07:38:14.249Z,4.77
2023-04-07T07:40:42.481Z,4.20
2023-04-07T07:43:10.738Z,4.57
2023-04-07T07:45:39.933Z,4.60
2023-04-07T07:48:07.891Z,4.77
2023-04-07T07:50:35.783Z,3.93
2023-04-07T07:53:03.764Z,4.13
2023-04-07T07:55:31.546Z,4.57
2023-04-07T07:57:59.332Z,3.53
2023-04-07T08:00:27.347Z,4.10
2023-04-07T08:02:56.616Z,3.73
2023-04-07T08:05:24.660Z,4.17
2023-04-07T08:07:54.664Z,4.20
2023-04-07T08:10:23.249Z,4.70
2023-04-07T08:12:51.276Z,4.50
2023-04-07T08:15:19.102Z,4.03
2023-04-07T08:17:47.030Z,3.77
2023-04-07T08:20:16.700Z,4.53
2023-04-07T08:22:44.965Z,4.70
2023-04-07T08:25:13.252Z,4.10
2023-04-07T08:27:42.447Z,3.10
2023-04-07T08:30:10.722Z,3.30
2023-04-07T08:32:39.414Z,3.30
2023-04-07T08:35:07.734Z,3.30
2023-04-07T08:37:37.191Z,3.40
2023-04-07T08:40:06.040Z,2.63
2023-04-07T08:42:35.376Z,2.70
2023-04-07T08:45:05.769Z,2.90
2023-04-07T08:47:35.776Z,2.60
2023-04-07T08:50:05.372Z,2.47
2023-04-07T08:52:41.170Z,2.10
2023-04-07T08:55:10.781Z,2.40
2023-04-07T08:57:39.082Z,2.47
2023-04-07T09:00:08.301Z,2.63
2023-04-07T09:02:38.278Z,1.83
2023-04-07T09:05:08.273Z,2.70
2023-04-07T09:07:38.537Z,2.60
2023-04-07T09:10:07.973Z,2.60
2023-04-07T09:12:36.136Z,3.25
2023-04-07T09:15:04.588Z,2.53
2023-04-07T09:17:32.430Z,3.03
2023-04-07T09:20:01.533Z,3.03
2023-04-07T09:22:42.531Z,2.60
2023-04-07T09:25:18.416Z,2.50
2023-04-07T09:27:56.535Z,2.47
2023-04-07T09:30:24.840Z,2.87
2023-04-07T09:32:52.816Z,2.60
2023-04-07T09:35:23.838Z,2.60
2023-04-07T09:38:11.410Z,2.33
2023-04-07T09:40:39.539Z,2.43
2023-04-07T09:43:07.677Z,2.63
2023-04-07T09:45:37.351Z,2.27
2023-04-07T09:48:08.689Z,2.33
2023-04-07T09:50:38.093Z,2.40
2023-04-07T09:53:05.920Z,1.90
2023-04-07T09:55:36.498Z,2.07
2023-04-07T09:58:06.317Z,2.70
2023-04-07T10:00:34.346Z,2.27
2023-04-07T10:03:03.631Z,2.23
2023-04-07T10:05:34.553Z,2.23
2023-04-07T10:08:03.980Z,2.20
2023-04-07T10:10:32.761Z,1.90
2023-04-07T10:13:05.575Z,2.07
2023-04-07T10:15:34.151Z,2.13
2023-04-07T10:18:04.327Z,2.00
2023-04-07T10:20:32.328Z,1.97
2023-04-07T10:23:10.979Z,1.90
2023-04-07T10:25:41.373Z,2.10
2023-04-07T10:28:12.375Z,2.10
2023-04-07T10:30:41.574Z,2.47
2023-04-07T10:33:09.871Z,2.40
2023-04-07T10:36:05.921Z,1.75
2023-04-07T10:38:34.185Z,1.70
2023-04-07T10:41:02.032Z,2.45
2023-04-07T10:43:40.798Z,2.28
2023-04-07T10:46:09.000Z,2.58
2023-04-07T10:48:37.096Z,1.90
2023-04-07T10:51:18.750Z,2.20
2023-04-07T10:54:22.515Z,2.03
2023-04-07T10:57:11.721Z,2.05
2023-04-07T10:59:46.921Z,2.10
2023-04-07T11:02:34.743Z,2.37
2023-04-07T11:05:03.621Z,2.30
2023-04-07T11:07:50.883Z,2.30
2023-04-07T11:10:19.444Z,2.63
2023-04-07T11:13:00.866Z,2.53
2023-04-07T11:15:30.165Z,3.00
2023-04-07T11:18:20.750Z,2.40
2023-04-07T11:20:51.572Z,2.40
2023-04-07T11:23:21.575Z,2.80
2023-04-07T11:25:51.521Z,2.72
2023-04-07T11:28:19.770Z,3.47
2023-04-07T11:30:51.877Z,2.73
2023-04-07T11:33:21.470Z,3.47
2023-04-07T11:35:55.432Z,3.80
2023-04-07T11:38:24.850Z,3.17
2023-04-07T11:40:52.911Z,3.28
2023-04-07T11:43:22.717Z,3.20
2023-04-07T11:46:12.762Z,3.78
2023-04-07T11:48:42.497Z,3.37
2023-04-07T11:51:17.891Z,2.78
2023-04-07T11:53:47.226Z,3.00
2023-04-07T11:56:18.478Z,3.00
2023-04-07T11:58:49.851Z,3.10
2023-04-07T12:01:19.568Z,3.60
2023-04-07T12:03:59.490Z,4.63
2023-04-07T12:06:34.512Z,3.53
2023-04-07T12:09:03.145Z,3.22
2023-04-07T12:11:31.760Z,2.83
2023-04-07T12:13:59.724Z,2.42
2023-04-07T12:16:29.031Z,2.47
2023-04-07T12:18:57.459Z,2.40
2023-04-07T12:21:25.612Z,2.47
2023-04-07T12:23:53.516Z,2.28
2023-04-07T12:26:23.369Z,2.35
2023-04-07T12:28:51.380Z,3.00
2023-04-07T12:31:19.550Z,2.63
2023-04-07T12:33:49.064Z,2.08
2023-04-07T12:36:17.174Z,2.20
2023-04-07T12:38:45.716Z,1.73
2023-04-07T12:41:13.711Z,1.60
2023-04-07T12:43:41.553Z,2.17
2023-04-07T12:46:09.571Z,1.95
2023-04-07T12:48:37.511Z,2.45
2023-04-07T12:51:06.924Z,1.92
2023-04-07T12:53:34.783Z,2.05
2023-04-07T12:56:02.784Z,1.77
2023-04-07T12:58:30.809Z,1.77
2023-04-07T13:01:00.695Z,1.75
2023-04-07T13:03:28.769Z,1.67
2023-04-07T13:06:01.110Z,1.80
2023-04-07T13:08:33.228Z,1.80
2023-04-07T13:11:01.084Z,2.22
2023-04-07T13:13:29.413Z,1.77
2023-04-07T13:15:57.392Z,1.85
2023-04-07T13:18:25.315Z,2.22
2023-04-07T13:21:13.224Z,2.08
2023-04-07T13:23:43.850Z,2.72
2023-04-07T13:26:12.169Z,2.42
2023-04-07T13:28:40.392Z,2.42
2023-04-07T13:31:09.539Z,2.65
2023-04-07T13:33:37.650Z,2.53
2023-04-07T13:36:05.546Z,2.75
2023-04-07T13:38:33.496Z,2.67
2023-04-07T13:41:04.142Z,2.63
2023-04-07T13:43:32.036Z,2.67
2023-04-07T13:46:00.600Z,2.92
2023-04-07T13:48:28.541Z,3.30
2023-04-07T13:50:56.489Z,3.83
2023-04-07T13:53:24.876Z,2.97
2023-04-07T13:55:52.861Z,3.08
2023-04-07T13:58:22.155Z,3.35
2023-04-07T14:00:50.609Z,3.10
2023-04-07T14:03:18.669Z,2.97
2023-04-07T14:05:46.542Z,2.53
2023-04-07T14:08:14.698Z,3.35
2023-04-07T14:10:43.518Z,2.83
2023-04-07T14:13:12.059Z,2.95
2023-04-07T14:15:41.263Z,2.90
2023-04-07T14:18:09.636Z,2.97
2023-04-07T14:20:38.151Z,2.70
2023-04-07T14:23:06.024Z,3.25
2023-04-07T14:25:33.940Z,3.30
2023-04-07T14:28:02.365Z,3.03
2023-04-07T14:30:30.854Z,3.47
2023-04-07T14:33:01.076Z,2.63
2023-04-07T14:35:29.814Z,3.00
2023-04-07T14:37:57.674Z,2.75
2023-04-07T14:40:25.976Z,2.50
2023-04-07T14:43:06.818Z,2.40
2023-04-07T14:45:35.592Z,2.42
2023-04-07T14:48:05.166Z,3.13
2023-04-07T14:50:33.436Z,4.32
2023-04-07T14:53:01.751Z,4.30
2023-04-07T14:55:30.857Z,4.00
2023-04-07T14:57:59.314Z,3.88
2023-04-07T15:00:27.255Z,4.20
2023-04-07T15:02:56.291Z,3.58
2023-04-07T15:05:26.180Z,3.45
2023-04-07T15:07:54.001Z,2.78
2023-04-07T15:10:22.040Z,3.67
2023-04-07T15:12:50.394Z,3.83
2023-04-07T15:15:18.774Z,3.95
2023-04-07T15:17:46.602Z,3.40
2023-04-07T15:20:14.797Z,2.95
2023-04-07T15:22:44.003Z,3.35
2023-04-07T15:25:12.439Z,3.25
2023-04-07T15:27:40.242Z,2.97
2023-04-07T15:30:09.559Z,3.55
2023-04-07T15:32:37.456Z,4.18
2023-04-07T15:35:06.140Z,3.70
2023-04-07T15:37:34.023Z,4.13
2023-04-07T15:40:03.275Z,4.53
2023-04-07T15:42:31.885Z,4.55
2023-04-07T15:44:59.732Z,3.55
2023-04-07T15:47:27.533Z,3.53
2023-04-07T15:49:55.756Z,3.60
2023-04-07T15:52:23.617Z,4.07
2023-04-07T15:54:51.946Z,4.10
2023-04-07T15:57:22.095Z,4.10
2023-04-07T15:59:52.138Z,3.67
2023-04-07T16:02:20.125Z,3.20
2023-04-07T16:04:48.677Z,3.58
2023-04-07T16:07:16.508Z,3.42
2023-04-07T16:09:44.718Z,4.95
2023-04-07T16:12:12.715Z,3.80
2023-04-07T16:14:41.947Z,3.77
2023-04-07T16:17:09.824Z,4.38
2023-04-07T16:19:37.796Z,4.20
2023-04-07T16:22:05.713Z,3.97
2023-04-07T16:24:33.527Z,3.80
2023-04-07T16:27:03.935Z,4.07
2023-04-07T16:29:32.179Z,5.03
2023-04-07T16:32:01.675Z,5.10
2023-04-07T16:34:29.557Z,5.47
2023-04-07T16:36:57.718Z,5.80
2023-04-07T16:39:27.216Z,5.40
2023-04-07T16:41:58.064Z,5.87
2023-04-07T16:44:25.928Z,5.70
2023-04-07T16:46:53.932Z,6.00
2023-04-07T16:49:23.152Z,5.40
2023-04-07T16:51:51.179Z,5.65
2023-04-07T16:54:19.090Z,6.40
2023-04-07T16:56:46.908Z,6.30
2023-04-07T16:59:15.042Z,5.60
2023-04-07T17:01:44.701Z,5.93
2023-04-07T17:04:12.902Z,5.87
2023-04-07T17:06:42.147Z,9.37
2023-04-07T17:09:12.080Z,6.70
2023-04-07T17:11:42.039Z,7.20
2023-04-07T17:14:09.900Z,6.20
2023-04-07T17:16:37.757Z,7.27
2023-04-07T17:19:05.624Z,7.17
2023-04-07T17:21:33.464Z,6.30
2023-04-07T17:24:02.614Z,6.15
2023-04-07T17:26:30.514Z,6.50
2023-04-07T17:28:58.437Z,6.97
2023-04-07T17:31:26.321Z,6.93
2023-04-07T17:33:54.209Z,7.13
2023-04-07T17:36:22.127Z,7.00
2023-04-07T17:38:50.342Z,6.67
2023-04-07T17:41:19.583Z,6.80
2023-04-07T17:43:47.873Z,7.40
2023-04-07T17:46:16.437Z,6.77
2023-04-07T17:48:45.376Z,7.20
2023-04-07T17:51:14.178Z,7.10
2023-04-07T17:53:42.137Z,7.23
2023-04-07T17:56:09.960Z,6.70
2023-04-07T17:58:39.101Z,7.20
2023-04-07T18:01:09.328Z,7.60
2023-04-07T18:03:38.230Z,7.70
2023-04-07T18:06:06.284Z,8.07
2023-04-07T18:08:34.330Z,8.37
2023-04-07T18:11:02.182Z,7.77
2023-04-07T18:13:29.982Z,8.60
2023-04-07T18:15:59.671Z,9.50
2023-04-07T18:18:27.544Z,8.47
2023-04-07T18:20:55.395Z,9.43
2023-04-07T18:23:23.228Z,9.60
2023-04-07T18:25:51.587Z,9.77
2023-04-07T18:28:20.143Z,11.93
2023-04-07T18:30:48.460Z,10.90
2023-04-07T18:33:17.633Z,10.63
2023-04-07T18:35:45.444Z,9.93
2023-04-07T18:38:13.585Z,10.60
2023-04-07T18:40:41.455Z,10.87
2023-04-07T18:43:09.509Z,11.07
2023-04-07T18:45:37.336Z,11.10
2023-04-07T18:48:05.676Z,11.87
2023-04-07T18:50:34.994Z,12.30
2023-04-07T18:53:03.127Z,12.23
2023-04-07T18:55:31.042Z,12.20
2023-04-07T18:57:58.915Z,12.20
2023-04-07T19:00:26.773Z,11.93
2023-04-07T19:02:54.874Z,11.63
2023-04-07T19:05:25.575Z,13.17
2023-04-07T19:07:55.346Z,13.20
2023-04-07T19:10:23.536Z,13.63
2023-04-07T19:12:51.677Z,13.40
2023-04-07T19:15:19.713Z,14.47
2023-04-07T19:17:47.679Z,13.53
2023-04-07T19:20:15.530Z,13.87
2023-04-07T19:22:43.918Z,20.27
2023-04-07T19:25:13.777Z,22.50
2023-04-07T19:27:41.983Z,16.27
2023-04-07T19:30:10.717Z,17.60
2023-04-07T19:32:38.885Z,18.10
2023-04-07T19:35:07.886Z,16.00
2023-04-07T19:37:35.785Z,14.03
2023-04-07T19:40:05.121Z,13.07
2023-04-07T19:42:34.369Z,13.40
2023-04-07T19:45:04.664Z,14.43
2023-04-07T19:47:32.619Z,14.70
2023-04-07T19:50:00.538Z,14.27
2023-04-07T19:52:30.115Z,14.13
2023-04-07T19:54:59.650Z,17.03
2023-04-07T19:57:28.359Z,18.50
2023-04-07T19:59:57.510Z,18.27
2023-04-07T20:02:25.536Z,14.63
2023-04-07T20:04:54.265Z,13.53
2023-04-07T20:07:22.681Z,14.67
2023-04-07T20:09:51.570Z,13.37
2023-04-07T20:12:19.438Z,12.77
2023-04-07T20:14:47.581Z,13.13
2023-04-07T20:17:16.830Z,13.70
2023-04-07T20:19:44.692Z,13.40
2023-04-07T20:22:12.972Z,14.67
2023-04-07T20:24:40.890Z,14.30
2023-04-07T20:27:08.853Z,14.13
2023-04-07T20:29:36.733Z,14.67
2023-04-07T20:32:04.616Z,15.93
2023-04-07T20:34:33.842Z,16.07
2023-04-07T20:37:01.674Z,14.63
2023-04-07T20:39:29.562Z,16.20
2023-04-07T20:41:57.523Z,15.63
2023-04-07T20:44:27.855Z,15.17
2023-04-07T20:46:56.319Z,14.80
2023-04-07T20:49:24.174Z,14.30
2023-04-07T20:51:53.572Z,13.00
2023-04-07T20:54:21.381Z,14.30
2023-04-07T20:56:49.595Z,14.80
2023-04-07T20:59:17.449Z,14.93
2023-04-07T21:01:46.670Z,14.93
2023-04-07T21:04:14.844Z,13.70
2023-04-07T21:06:43.172Z,14.17
2023-04-07T21:09:12.459Z,14.27
2023-04-07T21:11:40.334Z,15.00
2023-04-07T21:14:08.438Z,13.33
2023-04-07T21:16:36.960Z,13.80
2023-04-07T21:19:04.878Z,14.23
2023-04-07T21:21:32.771Z,14.97
2023-04-07T21:24:00.753Z,15.33
2023-04-07T21:26:31.087Z,14.47
2023-04-07T21:28:59.039Z,15.67
2023-04-07T21:31:27.844Z,14.67
2023-04-07T21:33:55.762Z,15.10
2023-04-07T21:36:23.709Z,14.97
2023-04-07T21:38:51.940Z,15.20
2023-04-07T21:41:19.848Z,14.80
2023-04-07T21:43:48.998Z,15.40
2023-04-07T21:46:19.051Z,16.43
2023-04-07T21:48:48.909Z,16.57
2023-04-07T21:51:17.375Z,16.27
2023-04-07T21:53:45.343Z,18.47
2023-04-07T21:56:13.726Z,17.87
2023-04-07T21:58:42.628Z,16.90
2023-04-07T22:01:12.287Z,18.00
2023-04-07T22:03:40.748Z,16.97
2023-04-07T22:06:08.762Z,17.60
2023-04-07T22:08:36.655Z,18.93
2023-04-07T22:11:04.685Z,17.47
2023-04-07T22:13:32.515Z,18.57
2023-04-07T22:16:02.148Z,16.83
2023-04-07T22:18:31.502Z,18.03
2023-04-07T22:20:59.301Z,18.07
2023-04-07T22:23:27.810Z,16.97
2023-04-07T22:25:56.104Z,15.73
2023-04-07T22:28:23.897Z,18.37
2023-04-07T22:30:51.815Z,18.63
2023-04-07T22:33:21.594Z,18.63
2023-04-07T22:35:51.220Z,19.70
2023-04-07T22:38:19.148Z,18.73
2023-04-07T22:40:47.068Z,16.70
2023-04-07T22:43:15.369Z,18.17
2023-04-07T22:45:43.375Z,17.63
2023-04-07T22:48:11.599Z,16.53
2023-04-07T22:50:39.457Z,14.13
2023-04-07T22:53:09.829Z,14.37
2023-04-07T22:55:37.704Z,16.80
2023-04-07T22:58:06.036Z,15.57
2023-04-07T23:00:34.103Z,15.93
2023-04-07T23:03:02.082Z,15.00
2023-04-07T23:05:30.265Z,16.77
2023-04-07T23:07:58.124Z,16.00
2023-04-07T23:10:27.390Z,16.70
2023-04-07T23:12:55.243Z,16.17
2023-04-07T23:15:23.075Z,14.93
2023-04-07T23:17:51.468Z,14.17
2023-04-07T23:20:19.636Z,14.43
2023-04-07T23:22:48.673Z,12.80
2023-04-07T23:25:16.517Z,12.33
2023-04-07T23:27:45.668Z,13.17
2023-04-07T23:30:14.641Z,12.53
2023-04-07T23:32:42.625Z,14.83
2023-04-07T23:35:11.624Z,13.43
2023-04-07T23:37:39.454Z,14.40
2023-04-07T23:40:08.631Z,13.37
2023-04-07T23:42:36.737Z,14.37
2023-04-07T23:45:06.977Z,14.37
2023-04-07T23:47:42.401Z,14.73
2023-04-07T23:50:10.693Z,15.03
2023-04-07T23:52:38.830Z,14.37
2023-04-07T23:55:07.513Z,15.03
2023-04-07T23:57:35.282Z,18.07
